KMGY/MGY METAR and TAF weather

Enter ICAO airport designator
Station Type Date Time Source
KMGY METAR 2021/05/11 16:53 UTC NOAA

KMGY 111653Z AUTO 03008KT 10SM CLR 13/02 A3027 RMK AO2 SLP250 T01330017


Station Type Date Time Source
KMGY Decoded METAR 2021/05/11 16:53 UTC NOAA

DAYTON WRIGHT BROTHERS AIRPORT , OH, United States (KMGY) 39-36N 84-14W 289M
May 11, 2021 - 12:53 PM EDT / 2021.05.11 1653 UTC
Wind: from the NNE (030 degrees) at 9 MPH (8 KT):0
Visibility: 10 mile(s):0
Sky conditions: clear
Temperature: 55.9 F (13.3 C)
Dew Point: 35.1 F (1.7 C)
Relative Humidity: 45%
Pressure (altimeter): 30.27 in. Hg (1025 hPa)
ob: KMGY 111653Z AUTO 03008KT 10SM CLR 13/02 A3027 RMK AO2 SLP250 T01330017
cycle: 17

Station Type Date Time Source
KMGY TAF UTC NOAA

Error!

Example: see airport list